sensor_id;sensor_type;location;lat;lon;timestamp;pressure;altitude;pressure_sealevel;temperature;humidity
21011;BME280;10663;42.714;23.274;2023-03-03T00:01:13;94820.41;;;4.99;88.55
21011;BME280;10663;42.714;23.274;2023-03-03T00:02:44;94815.72;;;4.89;89.04
21011;BME280;10663;42.714;23.274;2023-03-03T00:04:15;94813.53;;;4.86;88.83
21011;BME280;10663;42.714;23.274;2023-03-03T00:05:46;94816.25;;;4.79;89.17
21011;BME280;10663;42.714;23.274;2023-03-03T00:07:17;94812.47;;;4.75;89.18
21011;BME280;10663;42.714;23.274;2023-03-03T00:08:53;94814.09;;;4.76;89.57
21011;BME280;10663;42.714;23.274;2023-03-03T00:10:24;94810.66;;;4.76;89.56
21011;BME280;10663;42.714;23.274;2023-03-03T00:11:56;94816.25;;;4.79;89.75
21011;BME280;10663;42.714;23.274;2023-03-03T00:13:29;94810.44;;;4.77;89.70
21011;BME280;10663;42.714;23.274;2023-03-03T00:15:13;94801.09;;;4.81;89.84
21011;BME280;10663;42.714;23.274;2023-03-03T00:16:44;94805.63;;;4.74;89.61
21011;BME280;10663;42.714;23.274;2023-03-03T00:19:54;94798.56;;;4.75;90.09
21011;BME280;10663;42.714;23.274;2023-03-03T00:21:34;94799.84;;;4.72;89.85
21011;BME280;10663;42.714;23.274;2023-03-03T00:23:18;94800.97;;;4.76;90.06
21011;BME280;10663;42.714;23.274;2023-03-03T00:24:50;94800.63;;;4.73;89.94
21011;BME280;10663;42.714;23.274;2023-03-03T00:26:26;94799.25;;;4.70;90.01
21011;BME280;10663;42.714;23.274;2023-03-03T00:29:53;94796.41;;;4.72;90.23
21011;BME280;10663;42.714;23.274;2023-03-03T00:31:27;94793.44;;;4.68;90.48
21011;BME280;10663;42.714;23.274;2023-03-03T00:32:59;94790.59;;;4.70;90.68
21011;BME280;10663;42.714;23.274;2023-03-03T00:34:30;94799.13;;;4.65;90.67
21011;BME280;10663;42.714;23.274;2023-03-03T00:37:44;94791.94;;;4.61;91.00
21011;BME280;10663;42.714;23.274;2023-03-03T00:40:55;94792.06;;;4.66;91.13
21011;BME280;10663;42.714;23.274;2023-03-03T00:42:28;94784.66;;;4.63;91.16
21011;BME280;10663;42.714;23.274;2023-03-03T00:43:59;94793.06;;;4.65;91.14
21011;BME280;10663;42.714;23.274;2023-03-03T00:45:42;94784.31;;;4.71;91.19
21011;BME280;10663;42.714;23.274;2023-03-03T00:47:36;94789.56;;;4.71;91.14
21011;BME280;10663;42.714;23.274;2023-03-03T00:49:18;94787.75;;;4.71;91.38
21011;BME280;10663;42.714;23.274;2023-03-03T00:50:53;94778.72;;;4.67;91.37
21011;BME280;10663;42.714;23.274;2023-03-03T00:52:26;94776.91;;;4.68;91.59
21011;BME280;10663;42.714;23.274;2023-03-03T00:53:58;94768.59;;;4.71;91.61
21011;BME280;10663;42.714;23.274;2023-03-03T00:55:30;94769.72;;;4.75;91.38
21011;BME280;10663;42.714;23.274;2023-03-03T00:57:01;94768.47;;;4.77;91.33
21011;BME280;10663;42.714;23.274;2023-03-03T00:58:33;94765.63;;;4.79;91.10
21011;BME280;10663;42.714;23.274;2023-03-03T01:00:04;94762.19;;;4.78;91.17
21011;BME280;10663;42.714;23.274;2023-03-03T01:01:35;94759.81;;;4.77;91.28
21011;BME280;10663;42.714;23.274;2023-03-03T01:03:15;94756.94;;;4.78;91.46
21011;BME280;10663;42.714;23.274;2023-03-03T01:04:52;94757.31;;;4.82;91.24
21011;BME280;10663;42.714;23.274;2023-03-03T01:06:26;94752.50;;;4.79;91.42
21011;BME280;10663;42.714;23.274;2023-03-03T01:07:57;94754.09;;;4.80;91.27
21011;BME280;10663;42.714;23.274;2023-03-03T01:09:28;94750.22;;;4.71;91.50
21011;BME280;10663;42.714;23.274;2023-03-03T01:11:04;94753.06;;;4.69;91.88
21011;BME280;10663;42.714;23.274;2023-03-03T01:12:37;94749.06;;;4.67;91.90
21011;BME280;10663;42.714;23.274;2023-03-03T01:14:08;94747.59;;;4.71;91.85
21011;BME280;10663;42.714;23.274;2023-03-03T01:15:39;94746.22;;;4.68;91.39
21011;BME280;10663;42.714;23.274;2023-03-03T01:17:10;94755.25;;;4.72;91.69
21011;BME280;10663;42.714;23.274;2023-03-03T01:18:41;94757.06;;;4.72;91.89
21011;BME280;10663;42.714;23.274;2023-03-03T01:20:13;94745.78;;;4.71;91.93
21011;BME280;10663;42.714;23.274;2023-03-03T01:21:44;94748.63;;;4.70;92.00
21011;BME280;10663;42.714;23.274;2023-03-03T01:23:15;94751.13;;;4.76;91.98
21011;BME280;10663;42.714;23.274;2023-03-03T01:24:46;94746.47;;;4.78;91.65
21011;BME280;10663;42.714;23.274;2023-03-03T01:26:17;94747.72;;;4.76;91.86
21011;BME280;10663;42.714;23.274;2023-03-03T01:27:47;94748.72;;;4.75;91.91
21011;BME280;10663;42.714;23.274;2023-03-03T01:29:18;94743.16;;;4.71;92.28
21011;BME280;10663;42.714;23.274;2023-03-03T01:30:49;94748.63;;;4.70;92.18
21011;BME280;10663;42.714;23.274;2023-03-03T01:32:20;94750.88;;;4.66;92.32
21011;BME280;10663;42.714;23.274;2023-03-03T01:33:51;94751.09;;;4.65;92.45
21011;BME280;10663;42.714;23.274;2023-03-03T01:35:22;94750.81;;;4.73;92.57
21011;BME280;10663;42.714;23.274;2023-03-03T01:36:53;94748.63;;;4.70;92.23
21011;BME280;10663;42.714;23.274;2023-03-03T01:38:24;94754.34;;;4.78;92.01
21011;BME280;10663;42.714;23.274;2023-03-03T01:39:55;94755.13;;;4.79;91.96
21011;BME280;10663;42.714;23.274;2023-03-03T01:41:27;94751.00;;;4.83;91.67
21011;BME280;10663;42.714;23.274;2023-03-03T01:43:00;94744.75;;;4.84;91.75
21011;BME280;10663;42.714;23.274;2023-03-03T01:44:31;94739.50;;;4.84;91.85
21011;BME280;10663;42.714;23.274;2023-03-03T01:47:33;94740.44;;;4.89;91.15
21011;BME280;10663;42.714;23.274;2023-03-03T01:49:13;94739.84;;;4.87;91.01
21011;BME280;10663;42.714;23.274;2023-03-03T01:50:52;94745.75;;;4.83;91.31
21011;BME280;10663;42.714;23.274;2023-03-03T01:52:45;94748.75;;;4.86;91.16
21011;BME280;10663;42.714;23.274;2023-03-03T01:54:59;94736.44;;;4.87;90.99
21011;BME280;10663;42.714;23.274;2023-03-03T01:56:23;94739.50;;;4.84;90.95
21011;BME280;10663;42.714;23.274;2023-03-03T01:57:58;94733.69;;;4.82;90.94
21011;BME280;10663;42.714;23.274;2023-03-03T01:59:35;94737.22;;;4.76;91.58
21011;BME280;10663;42.714;23.274;2023-03-03T02:01:11;94738.81;;;4.77;91.54
21011;BME280;10663;42.714;23.274;2023-03-03T02:02:44;94735.63;;;4.75;91.34
21011;BME280;10663;42.714;23.274;2023-03-03T02:04:16;94735.06;;;4.73;91.49
21011;BME280;10663;42.714;23.274;2023-03-03T02:05:49;94737.09;;;4.71;91.64
21011;BME280;10663;42.714;23.274;2023-03-03T02:07:24;94740.75;;;4.70;91.90
21011;BME280;10663;42.714;23.274;2023-03-03T02:10:42;94741.78;;;4.69;91.53
21011;BME280;10663;42.714;23.274;2023-03-03T02:12:16;94736.97;;;4.66;91.93
21011;BME280;10663;42.714;23.274;2023-03-03T02:13:48;94741.41;;;4.65;91.99
21011;BME280;10663;42.714;23.274;2023-03-03T02:15:31;94731.19;;;4.64;92.05
21011;BME280;10663;42.714;23.274;2023-03-03T02:17:02;94733.31;;;4.67;91.99
21011;BME280;10663;42.714;23.274;2023-03-03T02:18:33;94737.66;;;4.61;91.77
21011;BME280;10663;42.714;23.274;2023-03-03T02:21:44;94731.97;;;4.64;91.85
21011;BME280;10663;42.714;23.274;2023-03-03T02:23:55;94736.97;;;4.66;91.61
21011;BME280;10663;42.714;23.274;2023-03-03T02:27:20;94735.50;;;4.70;91.27
21011;BME280;10663;42.714;23.274;2023-03-03T02:28:50;94735.06;;;4.73;91.01
21011;BME280;10663;42.714;23.274;2023-03-03T02:30:24;94734.25;;;4.72;91.41
21011;BME280;10663;42.714;23.274;2023-03-03T02:31:55;94740.84;;;4.75;90.98
21011;BME280;10663;42.714;23.274;2023-03-03T02:33:27;94736.53;;;4.69;91.15
21011;BME280;10663;42.714;23.274;2023-03-03T02:34:59;94735.72;;;4.68;90.83
21011;BME280;10663;42.714;23.274;2023-03-03T02:36:32;94731.28;;;4.69;90.89
21011;BME280;10663;42.714;23.274;2023-03-03T02:39:44;94729.47;;;4.69;90.75
21011;BME280;10663;42.714;23.274;2023-03-03T02:43:13;94730.13;;;4.65;90.77
21011;BME280;10663;42.714;23.274;2023-03-03T02:44:46;94736.09;;;4.72;90.72
21011;BME280;10663;42.714;23.274;2023-03-03T02:46:17;94729.25;;;4.71;90.78
21011;BME280;10663;42.714;23.274;2023-03-03T02:47:49;94731.16;;;4.75;90.82
21011;BME280;10663;42.714;23.274;2023-03-03T02:49:24;94736.41;;;4.75;90.49
21011;BME280;10663;42.714;23.274;2023-03-03T02:50:55;94738.38;;;4.80;90.48
21011;BME280;10663;42.714;23.274;2023-03-03T02:52:26;94738.59;;;4.78;90.47
21011;BME280;10663;42.714;23.274;2023-03-03T02:53:57;94736.88;;;4.84;90.12
21011;BME280;10663;42.714;23.274;2023-03-03T02:55:30;94732.44;;;4.84;89.91
21011;BME280;10663;42.714;23.274;2023-03-03T02:57:02;94725.84;;;4.82;89.98
21011;BME280;10663;42.714;23.274;2023-03-03T02:58:33;94728.78;;;4.85;89.72
21011;BME280;10663;42.714;23.274;2023-03-03T03:00:04;94729.13;;;4.89;89.36
21011;BME280;10663;42.714;23.274;2023-03-03T03:01:37;94722.63;;;4.80;89.21
21011;BME280;10663;42.714;23.274;2023-03-03T03:03:12;94725.13;;;4.75;89.71
21011;BME280;10663;42.714;23.274;2023-03-03T03:04:44;94728.78;;;4.74;89.98
21011;BME280;10663;42.714;23.274;2023-03-03T03:06:19;94720.22;;;4.78;90.34
21011;BME280;10663;42.714;23.274;2023-03-03T03:07:51;94722.41;;;4.81;89.95
21011;BME280;10663;42.714;23.274;2023-03-03T03:09:23;94726.84;;;4.81;89.89
21011;BME280;10663;42.714;23.274;2023-03-03T03:10:56;94723.75;;;4.84;89.63
21011;BME280;10663;42.714;23.274;2023-03-03T03:12:28;94720.59;;;4.82;90.09
21011;BME280;10663;42.714;23.274;2023-03-03T03:14:03;94720.00;;;4.80;89.58
21011;BME280;10663;42.714;23.274;2023-03-03T03:15:34;94723.75;;;4.84;89.67
21011;BME280;10663;42.714;23.274;2023-03-03T03:17:05;94721.84;;;4.91;89.93
21011;BME280;10663;42.714;23.274;2023-03-03T03:18:36;94726.72;;;4.87;89.97
21011;BME280;10663;42.714;23.274;2023-03-03T03:20:07;94720.22;;;4.78;90.28
21011;BME280;10663;42.714;23.274;2023-03-03T03:21:38;94719.31;;;4.84;89.99
21011;BME280;10663;42.714;23.274;2023-03-03T03:23:11;94721.38;;;4.82;89.86
21011;BME280;10663;42.714;23.274;2023-03-03T03:24:42;94719.53;;;4.83;90.53
21011;BME280;10663;42.714;23.274;2023-03-03T03:26:13;94714.06;;;4.84;90.56
21011;BME280;10663;42.714;23.274;2023-03-03T03:27:44;94718.50;;;4.84;90.79
21011;BME280;10663;42.714;23.274;2023-03-03T03:29:14;94719.53;;;4.83;90.43
21011;BME280;10663;42.714;23.274;2023-03-03T03:30:45;94722.97;;;4.83;90.44
21011;BME280;10663;42.714;23.274;2023-03-03T03:32:16;94720.59;;;4.82;91.06
21011;BME280;10663;42.714;23.274;2023-03-03T03:33:48;94717.25;;;4.75;91.21
21011;BME280;10663;42.714;23.274;2023-03-03T03:35:20;94713.75;;;4.81;90.92
21011;BME280;10663;42.714;23.274;2023-03-03T03:36:51;94712.72;;;4.82;91.44
21011;BME280;10663;42.714;23.274;2023-03-03T03:38:23;94710.31;;;4.80;91.36
21011;BME280;10663;42.714;23.274;2023-03-03T03:39:57;94707.69;;;4.80;91.28
21011;BME280;10663;42.714;23.274;2023-03-03T03:41:29;94709.84;;;4.83;91.53
21011;BME280;10663;42.714;23.274;2023-03-03T03:42:59;94713.59;;;4.76;92.14
21011;BME280;10663;42.714;23.274;2023-03-03T03:44:30;94701.41;;;4.81;91.79
21011;BME280;10663;42.714;23.274;2023-03-03T03:46:01;94706.31;;;4.78;91.57
21011;BME280;10663;42.714;23.274;2023-03-03T03:47:33;94708.59;;;4.74;91.90
21011;BME280;10663;42.714;23.274;2023-03-03T03:49:04;94705.75;;;4.76;91.71
21011;BME280;10663;42.714;23.274;2023-03-03T03:50:35;94706.22;;;4.73;92.20
21011;BME280;10663;42.714;23.274;2023-03-03T03:52:07;94704.25;;;4.68;92.16
21011;BME280;10663;42.714;23.274;2023-03-03T03:53:39;94704.25;;;4.68;92.78
21011;BME280;10663;42.714;23.274;2023-03-03T03:55:09;94708.25;;;4.71;93.66
21011;BME280;10663;42.714;23.274;2023-03-03T03:56:42;94706.22;;;4.73;93.20
21011;BME280;10663;42.714;23.274;2023-03-03T03:58:14;94706.44;;;4.71;92.97
21011;BME280;10663;42.714;23.274;2023-03-03T03:59:49;94701.19;;;4.71;93.33
21011;BME280;10663;42.714;23.274;2023-03-03T04:01:20;94703.47;;;4.68;93.60
21011;BME280;10663;42.714;23.274;2023-03-03T04:02:53;94700.38;;;4.71;93.69
21011;BME280;10663;42.714;23.274;2023-03-03T04:04:23;94709.63;;;4.73;94.27
21011;BME280;10663;42.714;23.274;2023-03-03T04:05:54;94703.25;;;4.69;94.64
21011;BME280;10663;42.714;23.274;2023-03-03T04:07:25;94706.53;;;4.65;95.34
21011;BME280;10663;42.714;23.274;2023-03-03T04:08:56;94694.13;;;4.72;95.17
21011;BME280;10663;42.714;23.274;2023-03-03T04:10:29;94692.53;;;4.71;94.98
21011;BME280;10663;42.714;23.274;2023-03-03T04:12:00;94699.81;;;4.69;95.39
21011;BME280;10663;42.714;23.274;2023-03-03T04:13:32;94695.81;;;4.66;95.33
21011;BME280;10663;42.714;23.274;2023-03-03T04:15:10;94697.41;;;4.67;95.56
21011;BME280;10663;42.714;23.274;2023-03-03T04:16:42;94692.66;;;4.64;95.99
21011;BME280;10663;42.714;23.274;2023-03-03T04:18:13;94700.25;;;4.66;96.07
21011;BME280;10663;42.714;23.274;2023-03-03T04:19:45;94699.72;;;4.64;95.98
21011;BME280;10663;42.714;23.274;2023-03-03T04:21:16;94700.63;;;4.69;95.96
21011;BME280;10663;42.714;23.274;2023-03-03T04:22:49;94696.75;;;4.72;95.66
21011;BME280;10663;42.714;23.274;2023-03-03T04:24:20;94691.03;;;4.63;95.25
21011;BME280;10663;42.714;23.274;2023-03-03T04:25:53;94695.13;;;4.59;96.28
21011;BME280;10663;42.714;23.274;2023-03-03T04:27:25;94697.88;;;4.64;96.01
21011;BME280;10663;42.714;23.274;2023-03-03T04:28:56;94692.88;;;4.63;96.42
21011;BME280;10663;42.714;23.274;2023-03-03T04:30:28;94700.16;;;4.61;96.17
21011;BME280;10663;42.714;23.274;2023-03-03T04:32:01;94695.94;;;4.60;96.51
21011;BME280;10663;42.714;23.274;2023-03-03T04:33:33;94701.19;;;4.60;96.19
21011;BME280;10663;42.714;23.274;2023-03-03T04:35:06;94692.88;;;4.63;96.71
21011;BME280;10663;42.714;23.274;2023-03-03T04:36:37;94696.03;;;4.65;95.98
21011;BME280;10663;42.714;23.274;2023-03-03T04:38:08;94693.66;;;4.63;96.03
21011;BME280;10663;42.714;23.274;2023-03-03T04:39:40;94694.00;;;4.67;96.27
21011;BME280;10663;42.714;23.274;2023-03-03T04:41:11;94695.72;;;4.73;96.12
21011;BME280;10663;42.714;23.274;2023-03-03T04:42:43;94691.38;;;4.67;96.06
21011;BME280;10663;42.714;23.274;2023-03-03T04:44:14;94693.19;;;4.66;96.46
21011;BME280;10663;42.714;23.274;2023-03-03T04:45:45;94695.50;;;4.63;96.59
21011;BME280;10663;42.714;23.274;2023-03-03T04:47:16;94696.63;;;4.67;96.73
21011;BME280;10663;42.714;23.274;2023-03-03T04:48:47;94695.13;;;4.59;96.47
21011;BME280;10663;42.714;23.274;2023-03-03T04:50:19;94689.22;;;4.64;97.16
21011;BME280;10663;42.714;23.274;2023-03-03T04:51:50;94691.03;;;4.63;96.62
21011;BME280;10663;42.714;23.274;2023-03-03T04:53:21;94698.56;;;4.60;97.24
21011;BME280;10663;42.714;23.274;2023-03-03T04:54:52;94694.13;;;4.60;97.20
21011;BME280;10663;42.714;23.274;2023-03-03T04:56:23;94689.88;;;4.59;97.27
21011;BME280;10663;42.714;23.274;2023-03-03T04:57:54;94690.47;;;4.61;97.75
21011;BME280;10663;42.714;23.274;2023-03-03T04:59:25;94698.34;;;4.61;97.60
21011;BME280;10663;42.714;23.274;2023-03-03T05:00:57;94698.19;;;4.56;98.01
21011;BME280;10663;42.714;23.274;2023-03-03T05:02:30;94701.41;;;4.58;98.42
21011;BME280;10663;42.714;23.274;2023-03-03T05:04:01;94704.81;;;4.59;98.45
21011;BME280;10663;42.714;23.274;2023-03-03T05:05:32;94701.50;;;4.51;98.39
21011;BME280;10663;42.714;23.274;2023-03-03T05:07:03;94705.16;;;4.50;98.11
21011;BME280;10663;42.714;23.274;2023-03-03T05:08:34;94700.50;;;4.53;98.34
21011;BME280;10663;42.714;23.274;2023-03-03T05:10:06;94699.34;;;4.48;98.38
21011;BME280;10663;42.714;23.274;2023-03-03T05:11:37;94704.25;;;4.57;98.48
21011;BME280;10663;42.714;23.274;2023-03-03T05:13:08;94706.66;;;4.58;98.46
21011;BME280;10663;42.714;23.274;2023-03-03T05:14:39;94702.41;;;4.57;98.47
21011;BME280;10663;42.714;23.274;2023-03-03T05:16:10;94704.38;;;4.62;98.74
21011;BME280;10663;42.714;23.274;2023-03-03T05:17:41;94703.34;;;4.63;98.74
21011;BME280;10663;42.714;23.274;2023-03-03T05:19:12;94707.22;;;4.60;98.68
21011;BME280;10663;42.714;23.274;2023-03-03T05:20:42;94703.69;;;4.66;98.51
21011;BME280;10663;42.714;23.274;2023-03-03T05:22:13;94709.63;;;4.62;98.58
21011;BME280;10663;42.714;23.274;2023-03-03T05:23:44;94702.66;;;4.67;98.38
21011;BME280;10663;42.714;23.274;2023-03-03T05:25:15;94708.69;;;4.68;98.36
21011;BME280;10663;42.714;23.274;2023-03-03T05:26:46;94708.38;;;4.64;97.84
21011;BME280;10663;42.714;23.274;2023-03-03T05:28:17;94712.13;;;4.68;98.23
21011;BME280;10663;42.714;23.274;2023-03-03T05:29:48;94713.03;;;4.74;98.21
21011;BME280;10663;42.714;23.274;2023-03-03T05:31:19;94708.38;;;4.87;98.19
21011;BME280;10663;42.714;23.274;2023-03-03T05:32:50;94707.78;;;4.85;98.05
21011;BME280;10663;42.714;23.274;2023-03-03T05:34:21;94706.41;;;4.83;97.92
21011;BME280;10663;42.714;23.274;2023-03-03T05:35:56;94703.91;;;4.88;97.81
21011;BME280;10663;42.714;23.274;2023-03-03T05:37:26;94711.34;;;4.91;97.98
21011;BME280;10663;42.714;23.274;2023-03-03T05:38:57;94703.56;;;4.96;97.91
21011;BME280;10663;42.714;23.274;2023-03-03T05:40:28;94707.22;;;5.07;96.62
21011;BME280;10663;42.714;23.274;2023-03-03T05:41:59;94708.91;;;5.01;96.63
21011;BME280;10663;42.714;23.274;2023-03-03T05:43:30;94712.59;;;5.00;96.97
21011;BME280;10663;42.714;23.274;2023-03-03T05:45:01;94712.13;;;5.15;97.43
21011;BME280;10663;42.714;23.274;2023-03-03T05:46:32;94713.13;;;5.14;96.99
21011;BME280;10663;42.714;23.274;2023-03-03T05:48:03;94711.22;;;5.09;96.94
21011;BME280;10663;42.714;23.274;2023-03-03T05:49:34;94718.03;;;5.10;96.81
21011;BME280;10663;42.714;23.274;2023-03-03T05:51:05;94725.69;;;5.12;96.51
21011;BME280;10663;42.714;23.274;2023-03-03T05:52:36;94725.69;;;5.12;96.21
21011;BME280;10663;42.714;23.274;2023-03-03T05:54:07;94718.75;;;5.17;95.76
21011;BME280;10663;42.714;23.274;2023-03-03T05:55:38;94723.19;;;5.17;95.75
21011;BME280;10663;42.714;23.274;2023-03-03T05:57:09;94722.72;;;5.20;96.48
21011;BME280;10663;42.714;23.274;2023-03-03T05:58:40;94719.63;;;5.23;96.17
21011;BME280;10663;42.714;23.274;2023-03-03T06:00:13;94718.03;;;5.22;96.37
21011;BME280;10663;42.714;23.274;2023-03-03T06:01:44;94724.53;;;5.19;95.46
21011;BME280;10663;42.714;23.274;2023-03-03T06:03:15;94720.22;;;5.13;95.43
21011;BME280;10663;42.714;23.274;2023-03-03T06:04:47;94718.75;;;5.17;95.48
21011;BME280;10663;42.714;23.274;2023-03-03T06:06:18;94724.97;;;5.28;94.80
21011;BME280;10663;42.714;23.274;2023-03-03T06:07:49;94720.53;;;5.28;94.85
21011;BME280;10663;42.714;23.274;2023-03-03T06:09:20;94718.25;;;5.32;95.06
21011;BME280;10663;42.714;23.274;2023-03-03T06:10:51;94721.22;;;5.36;95.11
21011;BME280;10663;42.714;23.274;2023-03-03T06:12:21;94722.13;;;5.30;94.81
21011;BME280;10663;42.714;23.274;2023-03-03T06:13:52;94719.72;;;5.28;95.30
21011;BME280;10663;42.714;23.274;2023-03-03T06:15:23;94722.69;;;5.32;95.52
21011;BME280;10663;42.714;23.274;2023-03-03T06:16:54;94719.19;;;5.26;95.23
21011;BME280;10663;42.714;23.274;2023-03-03T06:18:27;94729.09;;;5.24;94.84
21011;BME280;10663;42.714;23.274;2023-03-03T06:20:00;94723.41;;;5.27;95.41
21011;BME280;10663;42.714;23.274;2023-03-03T06:21:33;94722.25;;;5.35;95.17
21011;BME280;10663;42.714;23.274;2023-03-03T06:23:04;94728.53;;;5.34;95.27
21011;BME280;10663;42.714;23.274;2023-03-03T06:24:35;94725.44;;;5.37;94.80
21011;BME280;10663;42.714;23.274;2023-03-03T06:26:06;94729.63;;;5.38;94.87
21011;BME280;10663;42.714;23.274;2023-03-03T06:27:37;94732.63;;;5.41;94.50
21011;BME280;10663;42.714;23.274;2023-03-03T06:29:11;94731.81;;;5.41;94.91
21011;BME280;10663;42.714;23.274;2023-03-03T06:30:42;94731.22;;;5.50;94.28
21011;BME280;10663;42.714;23.274;2023-03-03T06:32:13;94730.66;;;5.48;94.14
21011;BME280;10663;42.714;23.274;2023-03-03T06:33:45;94726.06;;;5.55;93.98
21011;BME280;10663;42.714;23.274;2023-03-03T06:35:16;94727.66;;;5.56;93.32
21011;BME280;10663;42.714;23.274;2023-03-03T06:36:48;94736.56;;;5.55;93.91
21011;BME280;10663;42.714;23.274;2023-03-03T06:38:19;94728.47;;;5.57;94.00
21011;BME280;10663;42.714;23.274;2023-03-03T06:39:50;94733.72;;;5.57;94.17
21011;BME280;10663;42.714;23.274;2023-03-03T06:41:22;94736.03;;;5.53;94.11
21011;BME280;10663;42.714;23.274;2023-03-03T06:42:53;94732.47;;;5.48;93.56
21011;BME280;10663;42.714;23.274;2023-03-03T06:44:24;94744.59;;;5.49;93.47
21011;BME280;10663;42.714;23.274;2023-03-03T06:45:57;94740.69;;;5.51;94.97
21011;BME280;10663;42.714;23.274;2023-03-03T06:47:31;94740.13;;;5.49;94.72
21011;BME280;10663;42.714;23.274;2023-03-03T06:49:03;94739.44;;;5.54;94.27
21011;BME280;10663;42.714;23.274;2023-03-03T06:50:34;94745.16;;;5.51;94.71
21011;BME280;10663;42.714;23.274;2023-03-03T06:52:12;94740.25;;;5.54;94.69
21011;BME280;10663;42.714;23.274;2023-03-03T06:53:44;94741.72;;;5.62;94.07
21011;BME280;10663;42.714;23.274;2023-03-03T06:55:22;94740.31;;;5.71;93.70
21011;BME280;10663;42.714;23.274;2023-03-03T06:59:17;94745.69;;;6.05;91.47
21011;BME280;10663;42.714;23.274;2023-03-03T07:00:59;94740.41;;;5.88;91.53
21011;BME280;10663;42.714;23.274;2023-03-03T07:02:31;94744.47;;;5.95;91.16
21011;BME280;10663;42.714;23.274;2023-03-03T07:04:24;94748.19;;;6.11;90.98
21011;BME280;10663;42.714;23.274;2023-03-03T07:05:58;94741.59;;;6.09;90.74
21011;BME280;10663;42.714;23.274;2023-03-03T07:07:29;94739.19;;;6.07;91.31
21011;BME280;10663;42.714;23.274;2023-03-03T07:09:00;94743.66;;;6.07;90.88
21011;BME280;10663;42.714;23.274;2023-03-03T07:10:31;94750.53;;;5.96;91.75
21011;BME280;10663;42.714;23.274;2023-03-03T07:12:10;94747.22;;;6.00;91.11
21011;BME280;10663;42.714;23.274;2023-03-03T07:13:45;94746.97;;;6.02;91.47
21011;BME280;10663;42.714;23.274;2023-03-03T07:15:29;94740.69;;;6.03;91.23
21011;BME280;10663;42.714;23.274;2023-03-03T07:17:03;94736.78;;;6.06;90.94
21011;BME280;10663;42.714;23.274;2023-03-03T07:18:53;94739.16;;;6.19;91.23
21011;BME280;10663;42.714;23.274;2023-03-03T07:20:32;94745.50;;;6.23;91.52
21011;BME280;10663;42.714;23.274;2023-03-03T07:22:18;94742.94;;;6.11;91.52
21011;BME280;10663;42.714;23.274;2023-03-03T07:23:51;94746.03;;;6.08;91.77
21011;BME280;10663;42.714;23.274;2023-03-03T07:25:32;94748.91;;;6.07;92.35
21011;BME280;10663;42.714;23.274;2023-03-03T07:28:40;94746.53;;;5.93;92.77
21011;BME280;10663;42.714;23.274;2023-03-03T07:30:28;94749.69;;;6.07;91.68
21011;BME280;10663;42.714;23.274;2023-03-03T07:32:00;94745.56;;;6.11;91.35
21011;BME280;10663;42.714;23.274;2023-03-03T07:33:43;94741.81;;;6.07;92.19
21011;BME280;10663;42.714;23.274;2023-03-03T07:37:35;94741.41;;;5.98;92.92
21011;BME280;10663;42.714;23.274;2023-03-03T07:39:41;94736.94;;;5.99;91.98
21011;BME280;10663;42.714;23.274;2023-03-03T07:41:17;94741.63;;;5.97;91.79
21011;BME280;10663;42.714;23.274;2023-03-03T07:42:55;94743.78;;;6.00;91.91
21011;BME280;10663;42.714;23.274;2023-03-03T07:44:36;94739.06;;;6.02;91.02
21011;BME280;10663;42.714;23.274;2023-03-03T07:47:42;94749.16;;;5.93;91.37
21011;BME280;10663;42.714;23.274;2023-03-03T07:49:23;94739.47;;;5.94;91.30
21011;BME280;10663;42.714;23.274;2023-03-03T07:51:02;94733.75;;;5.97;92.40
21011;BME280;10663;42.714;23.274;2023-03-03T07:52:49;94738.03;;;6.03;90.97
21011;BME280;10663;42.714;23.274;2023-03-03T07:54:34;94738.03;;;6.03;91.04
21011;BME280;10663;42.714;23.274;2023-03-03T07:56:35;94735.72;;;6.18;90.49
21011;BME280;10663;42.714;23.274;2023-03-03T07:59:51;94729.16;;;6.21;91.33
21011;BME280;10663;42.714;23.274;2023-03-03T08:01:26;94736.03;;;6.22;91.10
21011;BME280;10663;42.714;23.274;2023-03-03T08:04:49;94729.56;;;6.29;90.33
21011;BME280;10663;42.714;23.274;2023-03-03T08:08:28;94731.19;;;6.30;89.73
21011;BME280;10663;42.714;23.274;2023-03-03T08:10:01;94727.84;;;6.35;90.32
21011;BME280;10663;42.714;23.274;2023-03-03T08:11:32;94724.25;;;6.41;90.34
21011;BME280;10663;42.714;23.274;2023-03-03T08:13:43;94731.75;;;6.32;90.74
21011;BME280;10663;42.714;23.274;2023-03-03T08:15:20;94730.56;;;6.40;90.01
21011;BME280;10663;42.714;23.274;2023-03-03T08:16:52;94734.72;;;6.53;89.02
21011;BME280;10663;42.714;23.274;2023-03-03T08:18:28;94726.19;;;6.62;88.85
21011;BME280;10663;42.714;23.274;2023-03-03T08:20:00;94731.22;;;6.64;89.57
21011;BME280;10663;42.714;23.274;2023-03-03T08:21:32;94726.19;;;6.62;89.88
21011;BME280;10663;42.714;23.274;2023-03-03T08:23:03;94718.88;;;6.64;89.12
21011;BME280;10663;42.714;23.274;2023-03-03T08:24:37;94721.81;;;6.68;89.05
21011;BME280;10663;42.714;23.274;2023-03-03T08:26:08;94717.97;;;6.59;89.49
21011;BME280;10663;42.714;23.274;2023-03-03T08:27:39;94714.25;;;6.71;89.79
21011;BME280;10663;42.714;23.274;2023-03-03T08:29:10;94715.50;;;6.69;89.38
21011;BME280;10663;42.714;23.274;2023-03-03T08:30:42;94718.75;;;6.76;88.96
21011;BME280;10663;42.714;23.274;2023-03-03T08:32:13;94718.38;;;6.67;88.39
21011;BME280;10663;42.714;23.274;2023-03-03T08:33:44;94711.09;;;6.74;88.91
21011;BME280;10663;42.714;23.274;2023-03-03T08:35:16;94706.00;;;6.68;88.73
21011;BME280;10663;42.714;23.274;2023-03-03T08:36:47;94709.22;;;6.70;89.28
21011;BME280;10663;42.714;23.274;2023-03-03T08:38:20;94711.09;;;6.74;89.87
21011;BME280;10663;42.714;23.274;2023-03-03T08:39:51;94712.47;;;6.77;89.12
21011;BME280;10663;42.714;23.274;2023-03-03T08:41:22;94711.50;;;6.83;89.03
21011;BME280;10663;42.714;23.274;2023-03-03T08:42:53;94707.13;;;6.89;89.38
21011;BME280;10663;42.714;23.274;2023-03-03T08:44:24;94715.81;;;6.89;89.97
21011;BME280;10663;42.714;23.274;2023-03-03T08:46:00;94712.28;;;6.84;88.63